sensor_id;sensor_type;location;lat;lon;timestamp;P1;durP1;ratioP1;P2;durP2;ratioP2
12906;SDS011;6521;50.498;8.474;2024-02-14T00:00:03;3.67;;;2.57;;
12906;SDS011;6521;50.498;8.474;2024-02-14T00:02:36;2.63;;;1.70;;
12906;SDS011;6521;50.498;8.474;2024-02-14T00:05:10;7.13;;;2.07;;
12906;SDS011;6521;50.498;8.474;2024-02-14T00:07:42;2.47;;;1.80;;
12906;SDS011;6521;50.498;8.474;2024-02-14T00:10:13;3.70;;;1.90;;
12906;SDS011;6521;50.498;8.474;2024-02-14T00:12:44;1.77;;;1.57;;
12906;SDS011;6521;50.498;8.474;2024-02-14T00:15:17;2.30;;;1.53;;
12906;SDS011;6521;50.498;8.474;2024-02-14T00:17:47;2.13;;;1.63;;
12906;SDS011;6521;50.498;8.474;2024-02-14T00:20:18;3.50;;;1.93;;
12906;SDS011;6521;50.498;8.474;2024-02-14T00:22:51;3.43;;;1.80;;
12906;SDS011;6521;50.498;8.474;2024-02-14T00:25:24;3.27;;;1.80;;
12906;SDS011;6521;50.498;8.474;2024-02-14T00:27:55;5.37;;;1.83;;
12906;SDS011;6521;50.498;8.474;2024-02-14T00:30:27;3.30;;;1.57;;
12906;SDS011;6521;50.498;8.474;2024-02-14T00:33:02;4.30;;;1.80;;
12906;SDS011;6521;50.498;8.474;2024-02-14T00:35:32;4.73;;;1.77;;
12906;SDS011;6521;50.498;8.474;2024-02-14T00:38:03;6.37;;;1.70;;
12906;SDS011;6521;50.498;8.474;2024-02-14T00:40:34;4.00;;;1.73;;
12906;SDS011;6521;50.498;8.474;2024-02-14T00:43:05;2.47;;;1.50;;
12906;SDS011;6521;50.498;8.474;2024-02-14T00:45:36;5.67;;;1.80;;
12906;SDS011;6521;50.498;8.474;2024-02-14T00:48:08;3.77;;;1.80;;
12906;SDS011;6521;50.498;8.474;2024-02-14T00:50:39;3.17;;;1.70;;
12906;SDS011;6521;50.498;8.474;2024-02-14T00:53:10;3.33;;;1.80;;
12906;SDS011;6521;50.498;8.474;2024-02-14T00:55:41;3.63;;;1.70;;
12906;SDS011;6521;50.498;8.474;2024-02-14T00:58:11;2.80;;;1.73;;
12906;SDS011;6521;50.498;8.474;2024-02-14T01:00:42;3.33;;;1.60;;
12906;SDS011;6521;50.498;8.474;2024-02-14T01:03:13;4.57;;;1.63;;
12906;SDS011;6521;50.498;8.474;2024-02-14T01:05:46;3.67;;;2.27;;
12906;SDS011;6521;50.498;8.474;2024-02-14T01:08:24;3.17;;;1.77;;
12906;SDS011;6521;50.498;8.474;2024-02-14T01:10:54;2.00;;;1.80;;
12906;SDS011;6521;50.498;8.474;2024-02-14T01:13:25;5.07;;;1.70;;
12906;SDS011;6521;50.498;8.474;2024-02-14T01:15:56;5.90;;;1.93;;
12906;SDS011;6521;50.498;8.474;2024-02-14T01:18:28;2.43;;;1.83;;
12906;SDS011;6521;50.498;8.474;2024-02-14T01:20:59;5.83;;;1.87;;
12906;SDS011;6521;50.498;8.474;2024-02-14T01:23:33;6.67;;;1.80;;
12906;SDS011;6521;50.498;8.474;2024-02-14T01:26:05;4.83;;;1.80;;
12906;SDS011;6521;50.498;8.474;2024-02-14T01:28:38;5.30;;;2.10;;
12906;SDS011;6521;50.498;8.474;2024-02-14T01:31:10;3.77;;;1.80;;
12906;SDS011;6521;50.498;8.474;2024-02-14T01:33:42;2.93;;;1.83;;
12906;SDS011;6521;50.498;8.474;2024-02-14T01:36:14;7.73;;;2.10;;
12906;SDS011;6521;50.498;8.474;2024-02-14T01:38:45;4.07;;;1.80;;
12906;SDS011;6521;50.498;8.474;2024-02-14T01:41:16;3.97;;;1.80;;
12906;SDS011;6521;50.498;8.474;2024-02-14T01:43:48;3.10;;;1.97;;
12906;SDS011;6521;50.498;8.474;2024-02-14T01:46:19;3.10;;;1.80;;
12906;SDS011;6521;50.498;8.474;2024-02-14T01:48:54;3.90;;;1.70;;
12906;SDS011;6521;50.498;8.474;2024-02-14T01:51:26;6.87;;;2.00;;
12906;SDS011;6521;50.498;8.474;2024-02-14T01:53:57;3.07;;;1.87;;
12906;SDS011;6521;50.498;8.474;2024-02-14T01:56:29;3.80;;;2.17;;
12906;SDS011;6521;50.498;8.474;2024-02-14T01:59:00;4.20;;;2.00;;
12906;SDS011;6521;50.498;8.474;2024-02-14T02:01:32;3.33;;;1.60;;
12906;SDS011;6521;50.498;8.474;2024-02-14T02:04:04;3.10;;;1.80;;
12906;SDS011;6521;50.498;8.474;2024-02-14T02:06:35;3.37;;;1.80;;
12906;SDS011;6521;50.498;8.474;2024-02-14T02:09:06;3.63;;;1.50;;
12906;SDS011;6521;50.498;8.474;2024-02-14T02:11:48;3.53;;;2.10;;
12906;SDS011;6521;50.498;8.474;2024-02-14T02:14:20;2.33;;;1.80;;
12906;SDS011;6521;50.498;8.474;2024-02-14T02:16:52;4.97;;;1.70;;
12906;SDS011;6521;50.498;8.474;2024-02-14T02:19:24;2.53;;;1.70;;
12906;SDS011;6521;50.498;8.474;2024-02-14T02:21:55;3.43;;;1.90;;
12906;SDS011;6521;50.498;8.474;2024-02-14T02:24:26;4.10;;;2.00;;
12906;SDS011;6521;50.498;8.474;2024-02-14T02:26:59;4.43;;;1.97;;
12906;SDS011;6521;50.498;8.474;2024-02-14T02:29:29;2.90;;;1.97;;
12906;SDS011;6521;50.498;8.474;2024-02-14T02:32:03;4.40;;;2.07;;
12906;SDS011;6521;50.498;8.474;2024-02-14T02:34:36;2.77;;;2.10;;
12906;SDS011;6521;50.498;8.474;2024-02-14T02:37:09;3.33;;;1.80;;
12906;SDS011;6521;50.498;8.474;2024-02-14T02:39:40;4.80;;;1.97;;
12906;SDS011;6521;50.498;8.474;2024-02-14T02:42:11;3.47;;;2.20;;
12906;SDS011;6521;50.498;8.474;2024-02-14T02:44:41;10.83;;;2.20;;
12906;SDS011;6521;50.498;8.474;2024-02-14T02:47:13;2.87;;;2.00;;
12906;SDS011;6521;50.498;8.474;2024-02-14T02:49:44;2.13;;;1.90;;
12906;SDS011;6521;50.498;8.474;2024-02-14T02:52:17;5.63;;;1.93;;
12906;SDS011;6521;50.498;8.474;2024-02-14T02:54:47;4.00;;;1.70;;
12906;SDS011;6521;50.498;8.474;2024-02-14T02:57:20;2.10;;;1.63;;
12906;SDS011;6521;50.498;8.474;2024-02-14T02:59:51;4.60;;;1.93;;
12906;SDS011;6521;50.498;8.474;2024-02-14T03:02:22;6.80;;;1.97;;
12906;SDS011;6521;50.498;8.474;2024-02-14T03:04:53;4.87;;;2.20;;
12906;SDS011;6521;50.498;8.474;2024-02-14T03:07:24;5.70;;;2.67;;
12906;SDS011;6521;50.498;8.474;2024-02-14T03:09:54;6.10;;;2.03;;
12906;SDS011;6521;50.498;8.474;2024-02-14T03:12:25;2.17;;;1.90;;
12906;SDS011;6521;50.498;8.474;2024-02-14T03:14:59;6.97;;;2.30;;
12906;SDS011;6521;50.498;8.474;2024-02-14T03:17:30;4.10;;;1.93;;
12906;SDS011;6521;50.498;8.474;2024-02-14T03:20:00;5.60;;;2.60;;
12906;SDS011;6521;50.498;8.474;2024-02-14T03:22:31;5.03;;;2.10;;
12906;SDS011;6521;50.498;8.474;2024-02-14T03:25:01;4.67;;;1.77;;
12906;SDS011;6521;50.498;8.474;2024-02-14T03:27:32;5.27;;;2.50;;
12906;SDS011;6521;50.498;8.474;2024-02-14T03:30:05;5.63;;;2.37;;
12906;SDS011;6521;50.498;8.474;2024-02-14T03:32:37;5.07;;;2.20;;
12906;SDS011;6521;50.498;8.474;2024-02-14T03:35:08;5.93;;;1.73;;
12906;SDS011;6521;50.498;8.474;2024-02-14T03:37:41;3.63;;;1.80;;
12906;SDS011;6521;50.498;8.474;2024-02-14T03:40:14;3.80;;;1.93;;
12906;SDS011;6521;50.498;8.474;2024-02-14T03:42:45;5.83;;;2.43;;
12906;SDS011;6521;50.498;8.474;2024-02-14T03:45:16;3.93;;;1.90;;
12906;SDS011;6521;50.498;8.474;2024-02-14T03:47:48;3.27;;;1.80;;
12906;SDS011;6521;50.498;8.474;2024-02-14T03:50:19;1.93;;;1.70;;
12906;SDS011;6521;50.498;8.474;2024-02-14T03:52:51;5.50;;;2.20;;
12906;SDS011;6521;50.498;8.474;2024-02-14T03:55:23;4.17;;;2.97;;
12906;SDS011;6521;50.498;8.474;2024-02-14T03:57:55;5.87;;;3.53;;
12906;SDS011;6521;50.498;8.474;2024-02-14T04:00:25;4.43;;;2.00;;
12906;SDS011;6521;50.498;8.474;2024-02-14T04:02:56;2.87;;;2.20;;
12906;SDS011;6521;50.498;8.474;2024-02-14T04:05:30;3.67;;;2.00;;
12906;SDS011;6521;50.498;8.474;2024-02-14T04:08:03;2.37;;;1.87;;
12906;SDS011;6521;50.498;8.474;2024-02-14T04:10:41;3.97;;;2.13;;
12906;SDS011;6521;50.498;8.474;2024-02-14T04:13:13;3.83;;;1.93;;
12906;SDS011;6521;50.498;8.474;2024-02-14T04:15:44;5.10;;;2.10;;
12906;SDS011;6521;50.498;8.474;2024-02-14T04:18:14;3.83;;;1.97;;
12906;SDS011;6521;50.498;8.474;2024-02-14T04:20:48;4.67;;;2.10;;
12906;SDS011;6521;50.498;8.474;2024-02-14T04:23:19;4.03;;;2.13;;
12906;SDS011;6521;50.498;8.474;2024-02-14T04:25:50;3.93;;;1.63;;
12906;SDS011;6521;50.498;8.474;2024-02-14T04:28:23;3.07;;;1.70;;
12906;SDS011;6521;50.498;8.474;2024-02-14T04:30:54;5.00;;;1.80;;
12906;SDS011;6521;50.498;8.474;2024-02-14T04:33:26;4.73;;;2.20;;
12906;SDS011;6521;50.498;8.474;2024-02-14T04:35:57;3.87;;;2.10;;
12906;SDS011;6521;50.498;8.474;2024-02-14T04:38:28;5.00;;;2.17;;
12906;SDS011;6521;50.498;8.474;2024-02-14T04:41:00;7.13;;;2.30;;
12906;SDS011;6521;50.498;8.474;2024-02-14T04:43:30;5.33;;;2.03;;
12906;SDS011;6521;50.498;8.474;2024-02-14T04:46:09;2.60;;;2.20;;
12906;SDS011;6521;50.498;8.474;2024-02-14T04:48:48;2.97;;;1.80;;
12906;SDS011;6521;50.498;8.474;2024-02-14T04:51:19;5.10;;;2.10;;
12906;SDS011;6521;50.498;8.474;2024-02-14T04:53:49;4.10;;;2.63;;
12906;SDS011;6521;50.498;8.474;2024-02-14T04:56:20;2.60;;;1.90;;
12906;SDS011;6521;50.498;8.474;2024-02-14T04:58:54;3.40;;;2.60;;
12906;SDS011;6521;50.498;8.474;2024-02-14T05:01:25;5.47;;;2.33;;
12906;SDS011;6521;50.498;8.474;2024-02-14T05:03:56;2.20;;;2.00;;
12906;SDS011;6521;50.498;8.474;2024-02-14T05:06:27;4.67;;;2.23;;
12906;SDS011;6521;50.498;8.474;2024-02-14T05:08:58;4.00;;;2.40;;
12906;SDS011;6521;50.498;8.474;2024-02-14T05:11:29;5.03;;;2.07;;
12906;SDS011;6521;50.498;8.474;2024-02-14T05:13:59;2.90;;;1.80;;
12906;SDS011;6521;50.498;8.474;2024-02-14T05:16:32;5.93;;;2.67;;
12906;SDS011;6521;50.498;8.474;2024-02-14T05:19:03;3.50;;;2.10;;
12906;SDS011;6521;50.498;8.474;2024-02-14T05:21:36;4.77;;;2.53;;
12906;SDS011;6521;50.498;8.474;2024-02-14T05:24:09;5.33;;;2.27;;
12906;SDS011;6521;50.498;8.474;2024-02-14T05:26:40;4.10;;;2.30;;
12906;SDS011;6521;50.498;8.474;2024-02-14T05:29:11;2.40;;;2.00;;
12906;SDS011;6521;50.498;8.474;2024-02-14T05:31:44;5.07;;;2.40;;
12906;SDS011;6521;50.498;8.474;2024-02-14T05:34:16;8.93;;;2.43;;
12906;SDS011;6521;50.498;8.474;2024-02-14T05:36:49;4.37;;;2.30;;
12906;SDS011;6521;50.498;8.474;2024-02-14T05:39:19;2.47;;;2.07;;
12906;SDS011;6521;50.498;8.474;2024-02-14T05:41:50;9.23;;;2.57;;
12906;SDS011;6521;50.498;8.474;2024-02-14T05:44:21;5.00;;;2.90;;
12906;SDS011;6521;50.498;8.474;2024-02-14T05:46:53;8.47;;;2.33;;
12906;SDS011;6521;50.498;8.474;2024-02-14T05:49:26;5.40;;;2.33;;
12906;SDS011;6521;50.498;8.474;2024-02-14T05:51:57;4.90;;;3.10;;
12906;SDS011;6521;50.498;8.474;2024-02-14T05:54:28;6.63;;;3.00;;
12906;SDS011;6521;50.498;8.474;2024-02-14T05:56:59;5.33;;;2.47;;
12906;SDS011;6521;50.498;8.474;2024-02-14T05:59:30;8.23;;;2.87;;
12906;SDS011;6521;50.498;8.474;2024-02-14T06:02:01;4.97;;;2.73;;
12906;SDS011;6521;50.498;8.474;2024-02-14T06:04:34;5.37;;;3.17;;
12906;SDS011;6521;50.498;8.474;2024-02-14T06:07:10;4.47;;;2.63;;
12906;SDS011;6521;50.498;8.474;2024-02-14T06:09:42;6.33;;;3.23;;
12906;SDS011;6521;50.498;8.474;2024-02-14T06:12:12;3.50;;;2.83;;
12906;SDS011;6521;50.498;8.474;2024-02-14T06:14:43;4.17;;;2.60;;
12906;SDS011;6521;50.498;8.474;2024-02-14T06:17:13;5.07;;;2.67;;
12906;SDS011;6521;50.498;8.474;2024-02-14T06:19:44;6.13;;;2.77;;
12906;SDS011;6521;50.498;8.474;2024-02-14T06:22:15;3.23;;;2.80;;
12906;SDS011;6521;50.498;8.474;2024-02-14T06:24:46;4.73;;;3.10;;
12906;SDS011;6521;50.498;8.474;2024-02-14T06:27:20;7.73;;;3.40;;
12906;SDS011;6521;50.498;8.474;2024-02-14T06:29:52;6.10;;;3.13;;
12906;SDS011;6521;50.498;8.474;2024-02-14T06:32:24;4.90;;;2.87;;
12906;SDS011;6521;50.498;8.474;2024-02-14T06:34:54;6.23;;;3.20;;
12906;SDS011;6521;50.498;8.474;2024-02-14T06:37:25;6.33;;;3.07;;
12906;SDS011;6521;50.498;8.474;2024-02-14T06:39:56;5.37;;;3.20;;
12906;SDS011;6521;50.498;8.474;2024-02-14T06:42:27;4.60;;;3.00;;
12906;SDS011;6521;50.498;8.474;2024-02-14T06:44:57;8.50;;;3.43;;
12906;SDS011;6521;50.498;8.474;2024-02-14T06:47:35;10.27;;;3.70;;
12906;SDS011;6521;50.498;8.474;2024-02-14T06:50:13;7.37;;;3.30;;
12906;SDS011;6521;50.498;8.474;2024-02-14T06:52:44;6.70;;;3.40;;
12906;SDS011;6521;50.498;8.474;2024-02-14T06:55:16;6.33;;;3.20;;
12906;SDS011;6521;50.498;8.474;2024-02-14T06:57:47;4.33;;;3.47;;
12906;SDS011;6521;50.498;8.474;2024-02-14T07:00:18;8.93;;;4.33;;
12906;SDS011;6521;50.498;8.474;2024-02-14T07:02:49;5.83;;;3.57;;
12906;SDS011;6521;50.498;8.474;2024-02-14T07:05:27;8.50;;;3.37;;
12906;SDS011;6521;50.498;8.474;2024-02-14T07:07:59;7.27;;;4.10;;
12906;SDS011;6521;50.498;8.474;2024-02-14T07:10:30;6.33;;;4.27;;
12906;SDS011;6521;50.498;8.474;2024-02-14T07:13:03;9.07;;;4.03;;
12906;SDS011;6521;50.498;8.474;2024-02-14T07:15:35;8.10;;;3.97;;
12906;SDS011;6521;50.498;8.474;2024-02-14T07:18:08;10.33;;;3.80;;
12906;SDS011;6521;50.498;8.474;2024-02-14T07:20:40;7.10;;;3.37;;
12906;SDS011;6521;50.498;8.474;2024-02-14T07:23:11;6.60;;;3.73;;
12906;SDS011;6521;50.498;8.474;2024-02-14T07:25:41;5.73;;;3.77;;
12906;SDS011;6521;50.498;8.474;2024-02-14T07:28:12;7.10;;;3.43;;
12906;SDS011;6521;50.498;8.474;2024-02-14T07:30:45;6.60;;;3.20;;
12906;SDS011;6521;50.498;8.474;2024-02-14T07:33:18;5.47;;;3.47;;
12906;SDS011;6521;50.498;8.474;2024-02-14T07:35:49;6.73;;;3.20;;
12906;SDS011;6521;50.498;8.474;2024-02-14T07:38:22;5.57;;;3.20;;
12906;SDS011;6521;50.498;8.474;2024-02-14T07:40:53;4.60;;;2.97;;
12906;SDS011;6521;50.498;8.474;2024-02-14T07:43:24;9.43;;;3.47;;
12906;SDS011;6521;50.498;8.474;2024-02-14T07:45:55;6.90;;;3.83;;
12906;SDS011;6521;50.498;8.474;2024-02-14T07:48:25;7.77;;;4.20;;
12906;SDS011;6521;50.498;8.474;2024-02-14T07:50:57;7.50;;;3.60;;
12906;SDS011;6521;50.498;8.474;2024-02-14T07:53:29;5.93;;;3.23;;
12906;SDS011;6521;50.498;8.474;2024-02-14T07:56:01;6.93;;;3.40;;
12906;SDS011;6521;50.498;8.474;2024-02-14T07:58:31;6.53;;;2.93;;
12906;SDS011;6521;50.498;8.474;2024-02-14T08:01:02;5.83;;;3.40;;
12906;SDS011;6521;50.498;8.474;2024-02-14T08:03:34;4.60;;;3.10;;
12906;SDS011;6521;50.498;8.474;2024-02-14T08:06:06;5.67;;;3.17;;
12906;SDS011;6521;50.498;8.474;2024-02-14T08:08:40;6.67;;;3.73;;
12906;SDS011;6521;50.498;8.474;2024-02-14T08:11:12;5.27;;;3.20;;
12906;SDS011;6521;50.498;8.474;2024-02-14T08:13:43;5.13;;;3.60;;
12906;SDS011;6521;50.498;8.474;2024-02-14T08:16:13;7.40;;;3.10;;
12906;SDS011;6521;50.498;8.474;2024-02-14T08:18:44;6.83;;;3.03;;
12906;SDS011;6521;50.498;8.474;2024-02-14T08:21:16;7.13;;;3.17;;
12906;SDS011;6521;50.498;8.474;2024-02-14T08:23:55;4.20;;;3.37;;
12906;SDS011;6521;50.498;8.474;2024-02-14T08:26:26;6.27;;;3.30;;
12906;SDS011;6521;50.498;8.474;2024-02-14T08:28:56;6.47;;;3.20;;
12906;SDS011;6521;50.498;8.474;2024-02-14T08:31:28;8.10;;;3.43;;
12906;SDS011;6521;50.498;8.474;2024-02-14T08:34:02;4.40;;;2.90;;
12906;SDS011;6521;50.498;8.474;2024-02-14T08:36:32;4.43;;;2.80;;
12906;SDS011;6521;50.498;8.474;2024-02-14T08:39:05;8.47;;;2.97;;
12906;SDS011;6521;50.498;8.474;2024-02-14T08:41:40;7.93;;;3.27;;
12906;SDS011;6521;50.498;8.474;2024-02-14T08:44:14;5.90;;;3.40;;
12906;SDS011;6521;50.498;8.474;2024-02-14T08:46:45;5.77;;;3.40;;
12906;SDS011;6521;50.498;8.474;2024-02-14T08:49:21;5.90;;;2.97;;
12906;SDS011;6521;50.498;8.474;2024-02-14T08:51:52;5.20;;;2.87;;
12906;SDS011;6521;50.498;8.474;2024-02-14T08:54:23;5.93;;;2.80;;
12906;SDS011;6521;50.498;8.474;2024-02-14T08:56:54;7.37;;;3.13;;
12906;SDS011;6521;50.498;8.474;2024-02-14T08:59:26;5.77;;;3.50;;
12906;SDS011;6521;50.498;8.474;2024-02-14T09:01:57;3.23;;;2.27;;
12906;SDS011;6521;50.498;8.474;2024-02-14T09:04:27;3.33;;;2.40;;
12906;SDS011;6521;50.498;8.474;2024-02-14T09:06:59;6.13;;;2.40;;
12906;SDS011;6521;50.498;8.474;2024-02-14T09:09:38;5.37;;;2.30;;
12906;SDS011;6521;50.498;8.474;2024-02-14T09:12:09;10.67;;;2.90;;
12906;SDS011;6521;50.498;8.474;2024-02-14T09:14:39;4.17;;;2.00;;
12906;SDS011;6521;50.498;8.474;2024-02-14T09:17:12;3.57;;;2.47;;
12906;SDS011;6521;50.498;8.474;2024-02-14T09:19:44;4.50;;;2.47;;
12906;SDS011;6521;50.498;8.474;2024-02-14T09:22:16;7.27;;;3.50;;
12906;SDS011;6521;50.498;8.474;2024-02-14T09:24:51;4.63;;;2.80;;
12906;SDS011;6521;50.498;8.474;2024-02-14T09:27:24;3.10;;;2.10;;
12906;SDS011;6521;50.498;8.474;2024-02-14T09:29:56;4.00;;;2.80;;
12906;SDS011;6521;50.498;8.474;2024-02-14T09:32:27;4.67;;;2.30;;
12906;SDS011;6521;50.498;8.474;2024-02-14T09:34:58;3.10;;;2.60;;
12906;SDS011;6521;50.498;8.474;2024-02-14T09:37:32;2.97;;;2.40;;
12906;SDS011;6521;50.498;8.474;2024-02-14T09:40:04;2.20;;;2.00;;
12906;SDS011;6521;50.498;8.474;2024-02-14T09:42:38;6.50;;;4.00;;
12906;SDS011;6521;50.498;8.474;2024-02-14T09:45:12;3.93;;;2.63;;
12906;SDS011;6521;50.498;8.474;2024-02-14T09:47:45;4.13;;;2.50;;
12906;SDS011;6521;50.498;8.474;2024-02-14T09:50:18;3.23;;;2.57;;
12906;SDS011;6521;50.498;8.474;2024-02-14T09:52:50;4.20;;;3.23;;
12906;SDS011;6521;50.498;8.474;2024-02-14T09:55:22;4.93;;;4.20;;
12906;SDS011;6521;50.498;8.474;2024-02-14T09:57:55;6.43;;;3.80;;
12906;SDS011;6521;50.498;8.474;2024-02-14T10:00:26;5.87;;;3.47;;
12906;SDS011;6521;50.498;8.474;2024-02-14T10:02:57;3.80;;;3.27;;
12906;SDS011;6521;50.498;8.474;2024-02-14T10:05:30;2.60;;;2.13;;
12906;SDS011;6521;50.498;8.474;2024-02-14T10:08:02;15.03;;;2.57;;
12906;SDS011;6521;50.498;8.474;2024-02-14T10:10:34;4.13;;;1.90;;
12906;SDS011;6521;50.498;8.474;2024-02-14T10:13:06;3.93;;;2.30;;
12906;SDS011;6521;50.498;8.474;2024-02-14T10:15:37;4.50;;;2.70;;
12906;SDS011;6521;50.498;8.474;2024-02-14T10:18:08;3.27;;;2.70;;
12906;SDS011;6521;50.498;8.474;2024-02-14T10:20:52;2.23;;;1.80;;
12906;SDS011;6521;50.498;8.474;2024-02-14T10:23:26;2.37;;;2.03;;
12906;SDS011;6521;50.498;8.474;2024-02-14T10:25:58;3.37;;;1.70;;
12906;SDS011;6521;50.498;8.474;2024-02-14T10:28:29;3.07;;;2.07;;
12906;SDS011;6521;50.498;8.474;2024-02-14T10:31:05;2.53;;;1.70;;
12906;SDS011;6521;50.498;8.474;2024-02-14T10:33:36;3.10;;;1.63;;
12906;SDS011;6521;50.498;8.474;2024-02-14T10:36:09;3.50;;;1.90;;
12906;SDS011;6521;50.498;8.474;2024-02-14T10:38:43;2.50;;;1.77;;
12906;SDS011;6521;50.498;8.474;2024-02-14T10:41:18;2.70;;;1.60;;
12906;SDS011;6521;50.498;8.474;2024-02-14T10:43:49;3.17;;;1.83;;
12906;SDS011;6521;50.498;8.474;2024-02-14T10:46:20;3.00;;;2.13;;
12906;SDS011;6521;50.498;8.474;2024-02-14T10:48:54;3.57;;;2.10;;
12906;SDS011;6521;50.498;8.474;2024-02-14T10:51:31;2.90;;;2.00;;
12906;SDS011;6521;50.498;8.474;2024-02-14T10:54:12;2.77;;;1.73;;
12906;SDS011;6521;50.498;8.474;2024-02-14T10:56:45;3.50;;;2.27;;
12906;SDS011;6521;50.498;8.474;2024-02-14T10:59:22;2.47;;;1.80;;
12906;SDS011;6521;50.498;8.474;2024-02-14T11:01:55;1.77;;;1.40;;
12906;SDS011;6521;50.498;8.474;2024-02-14T11:04:27;4.77;;;1.63;;
12906;SDS011;6521;50.498;8.474;2024-02-14T11:06:59;2.53;;;1.40;;
12906;SDS011;6521;50.498;8.474;2024-02-14T11:09:33;4.07;;;1.73;;
12906;SDS011;6521;50.498;8.474;2024-02-14T11:12:07;4.70;;;1.60;;
12906;SDS011;6521;50.498;8.474;2024-02-14T11:14:43;2.50;;;1.40;;
12906;SDS011;6521;50.498;8.474;2024-02-14T11:17:16;4.40;;;2.30;;
12906;SDS011;6521;50.498;8.474;2024-02-14T11:19:55;1.70;;;1.60;;
12906;SDS011;6521;50.498;8.474;2024-02-14T11:22:26;4.33;;;1.67;;
12906;SDS011;6521;50.498;8.474;2024-02-14T11:25:10;4.83;;;1.90;;
12906;SDS011;6521;50.498;8.474;2024-02-14T11:27:45;3.70;;;2.40;;
12906;SDS011;6521;50.498;8.474;2024-02-14T11:30:26;2.22;;;1.80;;
12906;SDS011;6521;50.498;8.474;2024-02-14T11:35:49;4.93;;;1.80;;
12906;SDS011;6521;50.498;8.474;2024-02-14T11:38:22;4.23;;;1.80;;
12906;SDS011;6521;50.498;8.474;2024-02-14T11:40:58;2.87;;;1.10;;
12906;SDS011;6521;50.498;8.474;2024-02-14T11:43:29;3.67;;;1.30;;
12906;SDS011;6521;50.498;8.474;2024-02-14T11:46:01;3.03;;;1.63;;
12906;SDS011;6521;50.498;8.474;2024-02-14T11:48:34;2.03;;;1.70;;
12906;SDS011;6521;50.498;8.474;2024-02-14T11:51:15;3.60;;;2.13;;
12906;SDS011;6521;50.498;8.474;2024-02-14T11:53:46;3.95;;;1.63;;
12906;SDS011;6521;50.498;8.474;2024-02-14T11:56:17;4.73;;;1.87;;
12906;SDS011;6521;50.498;8.474;2024-02-14T11:58:48;3.30;;;1.80;;
12906;SDS011;6521;50.498;8.474;2024-02-14T12:01:22;3.60;;;2.00;;
12906;SDS011;6521;50.498;8.474;2024-02-14T12:03:55;3.90;;;2.10;;
12906;SDS011;6521;50.498;8.474;2024-02-14T12:06:27;4.97;;;2.20;;
12906;SDS011;6521;50.498;8.474;2024-02-14T12:09:02;4.93;;;1.93;;
12906;SDS011;6521;50.498;8.474;2024-02-14T12:11:40;3.27;;;2.00;;
12906;SDS011;6521;50.498;8.474;2024-02-14T12:14:13;4.07;;;1.70;;
12906;SDS011;6521;50.498;8.474;2024-02-14T12:16:45;4.47;;;1.70;;
12906;SDS011;6521;50.498;8.474;2024-02-14T12:19:16;1.87;;;1.23;;
12906;SDS011;6521;50.498;8.474;2024-02-14T12:21:47;1.27;;;1.17;;
12906;SDS011;6521;50.498;8.474;2024-02-14T12:24:19;2.57;;;1.30;;
12906;SDS011;6521;50.498;8.474;2024-02-14T12:26:57;4.47;;;1.63;;
12906;SDS011;6521;50.498;8.474;2024-02-14T12:29:28;2.33;;;1.40;;
12906;SDS011;6521;50.498;8.474;2024-02-14T12:32:05;2.23;;;1.10;;
12906;SDS011;6521;50.498;8.474;2024-02-14T12:34:37;4.67;;;2.00;;
12906;SDS011;6521;50.498;8.474;2024-02-14T12:37:11;1.57;;;1.47;;
12906;SDS011;6521;50.498;8.474;2024-02-14T12:39:41;1.93;;;1.50;;
12906;SDS011;6521;50.498;8.474;2024-02-14T12:42:14;4.07;;;2.00;;
12906;SDS011;6521;50.498;8.474;2024-02-14T12:44:45;10.90;;;2.20;;
12906;SDS011;6521;50.498;8.474;2024-02-14T12:47:18;2.13;;;1.50;;
12906;SDS011;6521;50.498;8.474;2024-02-14T12:49:48;2.27;;;1.70;;
12906;SDS011;6521;50.498;8.474;2024-02-14T12:52:22;1.87;;;1.50;;
12906;SDS011;6521;50.498;8.474;2024-02-14T12:54:58;1.37;;;1.17;;
12906;SDS011;6521;50.498;8.474;2024-02-14T12:57:29;2.80;;;1.53;;
12906;SDS011;6521;50.498;8.474;2024-02-14T13:00:00;2.87;;;1.40;;
12906;SDS011;6521;50.498;8.474;2024-02-14T13:02:30;1.40;;;1.17;;
12906;SDS011;6521;50.498;8.474;2024-02-14T13:05:02;4.60;;;2.77;;
12906;SDS011;6521;50.498;8.474;2024-02-14T13:07:37;4.03;;;1.97;;
12906;SDS011;6521;50.498;8.474;2024-02-14T13:10:12;1.60;;;1.40;;
12906;SDS011;6521;50.498;8.474;2024-02-14T13:12:46;2.40;;;1.40;;
12906;SDS011;6521;50.498;8.474;2024-02-14T13:15:21;2.80;;;1.20;;
12906;SDS011;6521;50.498;8.474;2024-02-14T13:17:53;1.73;;;0.90;;
12906;SDS011;6521;50.498;8.474;2024-02-14T13:20:29;2.90;;;1.20;;
12906;SDS011;6521;50.498;8.474;2024-02-14T13:23:00;2.20;;;1.73;;
12906;SDS011;6521;50.498;8.474;2024-02-14T13:25:30;3.10;;;1.63;;
12906;SDS011;6521;50.498;8.474;2024-02-14T13:28:02;3.87;;;2.60;;
12906;SDS011;6521;50.498;8.474;2024-02-14T13:30:33;2.73;;;1.50;;
12906;SDS011;6521;50.498;8.474;2024-02-14T13:33:06;3.17;;;1.77;;
12906;SDS011;6521;50.498;8.474;2024-02-14T13:35:36;2.87;;;1.57;;
12906;SDS011;6521;50.498;8.474;2024-02-14T13:38:08;2.13;;;1.93;;
12906;SDS011;6521;50.498;8.474;2024-02-14T13:40:42;2.10;;;1.83;;
12906;SDS011;6521;50.498;8.474;2024-02-14T13:43:13;4.40;;;1.93;;
12906;SDS011;6521;50.498;8.474;2024-02-14T13:45:47;3.77;;;2.00;;
12906;SDS011;6521;50.498;8.474;2024-02-14T13:48:19;3.53;;;1.80;;
12906;SDS011;6521;50.498;8.474;2024-02-14T13:50:51;4.67;;;1.50;;
12906;SDS011;6521;50.498;8.474;2024-02-14T13:53:23;6.23;;;2.07;;
12906;SDS011;6521;50.498;8.474;2024-02-14T13:55:53;4.87;;;2.60;;
12906;SDS011;6521;50.498;8.474;2024-02-14T13:58:34;2.67;;;1.70;;
12906;SDS011;6521;50.498;8.474;2024-02-14T14:01:05;2.07;;;1.67;;
12906;SDS011;6521;50.498;8.474;2024-02-14T14:03:38;1.80;;;1.70;;
12906;SDS011;6521;50.498;8.474;2024-02-14T14:06:12;1.77;;;1.50;;
12906;SDS011;6521;50.498;8.474;2024-02-14T14:08:43;2.13;;;1.63;;
12906;SDS011;6521;50.498;8.474;2024-02-14T14:11:16;2.70;;;1.50;;
12906;SDS011;6521;50.498;8.474;2024-02-14T14:13:47;4.97;;;1.67;;
12906;SDS011;6521;50.498;8.474;2024-02-14T14:16:19;2.47;;;1.60;;
12906;SDS011;6521;50.498;8.474;2024-02-14T14:18:55;3.57;;;1.60;;
12906;SDS011;6521;50.498;8.474;2024-02-14T14:21:26;4.77;;;1.70;;
12906;SDS011;6521;50.498;8.474;2024-02-14T14:23:59;4.93;;;2.20;;
12906;SDS011;6521;50.498;8.474;2024-02-14T14:26:30;2.50;;;2.00;;
12906;SDS011;6521;50.498;8.474;2024-02-14T14:29:01;1.73;;;1.40;;
12906;SDS011;6521;50.498;8.474;2024-02-14T14:31:32;3.57;;;1.50;;
12906;SDS011;6521;50.498;8.474;2024-02-14T14:34:06;3.90;;;1.50;;
12906;SDS011;6521;50.498;8.474;2024-02-14T14:36:37;1.60;;;1.40;;
12906;SDS011;6521;50.498;8.474;2024-02-14T14:39:11;3.10;;;1.27;;
12906;SDS011;6521;50.498;8.474;2024-02-14T14:41:46;1.43;;;1.33;;
12906;SDS011;6521;50.498;8.474;2024-02-14T14:44:17;2.40;;;1.33;;
12906;SDS011;6521;50.498;8.474;2024-02-14T14:46:49;1.97;;;1.50;;
12906;SDS011;6521;50.498;8.474;2024-02-14T14:49:21;1.33;;;1.23;;
12906;SDS011;6521;50.498;8.474;2024-02-14T14:51:51;2.10;;;1.60;;
12906;SDS011;6521;50.498;8.474;2024-02-14T14:54:23;1.60;;;1.50;;
12906;SDS011;6521;50.498;8.474;2024-02-14T14:56:54;5.60;;;1.97;;
12906;SDS011;6521;50.498;8.474;2024-02-14T14:59:25;2.03;;;1.53;;
12906;SDS011;6521;50.498;8.474;2024-02-14T15:01:56;2.63;;;2.10;;
12906;SDS011;6521;50.498;8.474;2024-02-14T15:04:29;3.13;;;1.90;;
12906;SDS011;6521;50.498;8.474;2024-02-14T15:07:00;2.70;;;1.73;;
12906;SDS011;6521;50.498;8.474;2024-02-14T15:09:30;4.20;;;2.27;;
12906;SDS011;6521;50.498;8.474;2024-02-14T15:12:02;3.47;;;2.03;;
12906;SDS011;6521;50.498;8.474;2024-02-14T15:14:35;1.90;;;1.70;;
12906;SDS011;6521;50.498;8.474;2024-02-14T15:17:05;2.50;;;1.90;;
12906;SDS011;6521;50.498;8.474;2024-02-14T15:19:37;2.17;;;1.97;;
12906;SDS011;6521;50.498;8.474;2024-02-14T15:22:08;3.13;;;2.10;;
12906;SDS011;6521;50.498;8.474;2024-02-14T15:24:39;2.50;;;1.97;;
12906;SDS011;6521;50.498;8.474;2024-02-14T15:27:12;1.90;;;1.80;;
12906;SDS011;6521;50.498;8.474;2024-02-14T15:29:53;4.73;;;2.93;;
12906;SDS011;6521;50.498;8.474;2024-02-14T15:32:52;3.17;;;1.60;;